Time;durP1;ratioP1;P1;durP2;ratioP2;P2;SDS_P1;SDS_P2;PMS_P1;PMS_P2;Temp;Humidity;BMP_temperature;BMP_pressure;BME280_temperature;BME280_humidity;BME280_pressure;Samples;Min_cycle;Max_cycle;Signal;HPM_P1;HPM_P2
2022/11/18 00:01:18;;;;;;;1.70;0.30;;;8.20;99.90;;;;;;4869283;29;20502;-90
2022/11/18 00:03:45;;;;;;;2.05;0.40;;;8.20;99.90;;;;;;4846770;29;20034;-89
2022/11/18 00:06:13;;;;;;;2.65;0.40;;;8.20;99.90;;;;;;4861824;29;20034;-90
2022/11/18 00:08:39;;;;;;;1.55;0.30;;;8.20;99.90;;;;;;4872263;29;20086;-84
2022/11/18 00:11:11;;;;;;;2.67;0.30;;;8.20;99.90;;;;;;4854674;29;20029;-89
2022/11/18 00:16:22;;;;;;;0.90;0.30;;;8.30;99.90;;;;;;4854735;29;20090;-88
2022/11/18 00:18:48;;;;;;;0.95;0.20;;;8.20;99.90;;;;;;4837726;29;20060;-90
2022/11/18 00:21:14;;;;;;;1.85;0.20;;;8.20;99.90;;;;;;4869083;29;20467;-90
2022/11/18 00:23:40;;;;;;;1.65;0.30;;;8.30;99.90;;;;;;4857281;29;20543;-93
2022/11/18 00:26:11;;;;;;;1.92;0.50;;;8.30;99.90;;;;;;4857960;29;20109;-87
2022/11/18 00:28:37;;;;;;;1.40;0.20;;;8.30;99.90;;;;;;4839079;29;20392;-86
2022/11/18 00:31:05;;;;;;;2.15;0.30;;;8.30;99.90;;;;;;4864856;29;20371;-92
2022/11/18 00:33:31;;;;;;;2.88;0.30;;;8.30;99.90;;;;;;4849296;29;20037;-84
2022/11/18 00:35:58;;;;;;;2.50;0.30;;;8.30;99.90;;;;;;4868898;29;20037;-89
2022/11/18 00:38:25;;;;;;;2.08;0.20;;;8.30;99.90;;;;;;4854554;29;20022;-86
2022/11/18 00:41:05;;;;;;;1.20;0.47;;;8.30;99.90;;;;;;4842699;29;20041;-83
2022/11/18 00:43:32;;;;;;;1.08;0.20;;;8.50;99.90;;;;;;4836539;29;20487;-86
2022/11/18 00:45:58;;;;;;;1.50;0.20;;;8.40;99.90;;;;;;4857000;29;20116;-90
2022/11/18 00:48:24;;;;;;;2.65;0.20;;;8.50;99.90;;;;;;4855310;29;20057;-91
2022/11/18 00:50:52;;;;;;;1.90;0.20;;;8.40;99.90;;;;;;4871828;29;20038;-86
2022/11/18 00:53:20;;;;;;;0.80;0.20;;;8.40;99.90;;;;;;4866965;29;20236;-84
2022/11/18 00:55:45;;;;;;;1.05;0.17;;;8.40;99.90;;;;;;4870298;29;20262;-92
2022/11/18 00:58:13;;;;;;;1.52;0.32;;;8.40;99.90;;;;;;4851997;29;20506;-90
2022/11/18 01:00:40;;;;;;;1.02;0.35;;;8.40;99.90;;;;;;4856349;29;20029;-84
2022/11/18 01:03:07;;;;;;;1.08;0.20;;;8.40;99.90;;;;;;4871128;29;20072;-86
2022/11/18 01:05:32;;;;;;;1.85;0.35;;;8.40;99.90;;;;;;4855905;29;20037;-85
2022/11/18 01:07:58;;;;;;;1.45;0.25;;;8.30;99.90;;;;;;4867582;29;20061;-84
2022/11/18 01:10:24;;;;;;;2.55;0.20;;;8.40;99.90;;;;;;4867734;29;20057;-86
2022/11/18 01:15:42;;;;;;;0.82;0.20;;;8.30;99.90;;;;;;4854583;29;20025;-87
2022/11/18 01:18:08;;;;;;;1.48;0.20;;;8.30;99.90;;;;;;4838577;29;20034;-88
2022/11/18 01:20:35;;;;;;;1.17;0.20;;;8.30;99.90;;;;;;4853181;29;20090;-87
2022/11/18 01:23:00;;;;;;;0.85;0.20;;;8.30;99.90;;;;;;4854037;29;20025;-85
2022/11/18 01:25:27;;;;;;;1.52;0.20;;;8.30;99.90;;;;;;4836361;29;20475;-86
2022/11/18 01:27:53;;;;;;;1.30;0.20;;;8.30;99.90;;;;;;4853089;29;20056;-92
2022/11/18 01:30:19;;;;;;;2.17;0.20;;;8.30;99.90;;;;;;4868837;29;20026;-88
2022/11/18 01:32:44;;;;;;;2.08;0.30;;;8.30;99.90;;;;;;4853729;29;20030;-85
2022/11/18 01:35:11;;;;;;;1.83;0.20;;;8.30;99.90;;;;;;4855207;29;20037;-87
2022/11/18 01:37:37;;;;;;;1.73;0.30;;;8.30;99.90;;;;;;4866825;29;20034;-85
2022/11/18 01:40:05;;;;;;;0.93;0.20;;;8.30;99.90;;;;;;4853463;29;20049;-84
2022/11/18 01:42:31;;;;;;;1.40;0.30;;;8.40;99.90;;;;;;4852529;29;20460;-87
2022/11/18 01:45:03;;;;;;;2.13;0.30;;;8.40;99.90;;;;;;4853087;29;20033;-86
2022/11/18 01:47:33;;;;;;;1.38;0.20;;;8.30;99.90;;;;;;4836284;29;20066;-88
2022/11/18 01:50:00;;;;;;;1.75;0.28;;;8.40;99.90;;;;;;4853464;29;20026;-85
2022/11/18 01:52:26;;;;;;;1.65;0.20;;;8.40;99.90;;;;;;4835732;29;20042;-83
2022/11/18 01:54:57;;;;;;;2.42;0.30;;;8.40;99.90;;;;;;4855188;29;20034;-86
2022/11/18 01:57:26;;;;;;;0.57;0.20;;;8.40;99.90;;;;;;4850415;29;20029;-92
2022/11/18 01:59:58;;;;;;;1.23;0.20;;;8.40;99.90;;;;;;4856048;29;20040;-89
2022/11/18 02:02:25;;;;;;;2.78;0.25;;;8.40;99.90;;;;;;4859503;29;20110;-86
2022/11/18 02:04:54;;;;;;;2.75;0.30;;;8.40;99.90;;;;;;4847131;29;20034;-86
2022/11/18 02:07:21;;;;;;;0.80;0.20;;;8.40;99.90;;;;;;4868379;29;20094;-84
2022/11/18 02:09:47;;;;;;;2.00;0.30;;;8.40;99.90;;;;;;4850406;29;20474;-88
2022/11/18 02:12:13;;;;;;;1.23;0.20;;;8.40;99.90;;;;;;4865314;29;20127;-88
2022/11/18 02:14:44;;;;;;;1.42;0.30;;;8.40;99.90;;;;;;4855120;29;20125;-84
2022/11/18 02:17:36;;;;;;;0.60;0.20;;;8.30;99.90;;;;;;4868739;29;20049;-87
2022/11/18 02:20:29;;;;;;;1.55;0.20;;;8.30;99.90;;;;;;4839806;29;20112;-89
2022/11/18 02:23:01;;;;;;;0.93;0.20;;;8.30;99.90;;;;;;4851887;29;20394;-88
2022/11/18 02:25:44;;;;;;;0.88;0.20;;;8.30;99.90;;;;;;4868562;29;20030;-87
2022/11/18 02:28:22;;;;;;;1.02;0.30;;;8.20;99.90;;;;;;4851899;29;20128;-86
2022/11/18 02:31:01;;;;;;;1.23;0.30;;;8.20;99.90;;;;;;4852793;29;20266;-84
2022/11/18 02:33:39;;;;;;;0.70;0.20;;;8.20;99.90;;;;;;4866510;29;20029;-84
2022/11/18 02:36:19;;;;;;;1.75;0.30;;;8.10;99.90;;;;;;4838928;29;20065;-84
2022/11/18 02:38:51;;;;;;;4.22;0.40;;;8.20;99.90;;;;;;4852388;29;20582;-86
2022/11/18 02:41:25;;;;;;;1.70;0.20;;;8.20;99.90;;;;;;4866507;29;20029;-84
2022/11/18 02:44:02;;;;;;;1.13;0.20;;;8.10;99.90;;;;;;4847190;29;20118;-88
2022/11/18 02:46:32;;;;;;;1.35;0.30;;;8.20;99.90;;;;;;4831010;29;20612;-90
2022/11/18 02:49:01;;;;;;;1.40;0.20;;;8.20;99.90;;;;;;4861230;29;20393;-93
2022/11/18 02:51:30;;;;;;;0.68;0.20;;;8.20;99.90;;;;;;4853261;29;20814;-85
2022/11/18 02:54:01;;;;;;;1.08;0.20;;;8.20;99.90;;;;;;4852708;29;20546;-85
2022/11/18 02:56:28;;;;;;;2.30;0.35;;;8.30;99.90;;;;;;4838745;29;20514;-89
2022/11/18 02:58:54;;;;;;;2.20;0.30;;;8.20;99.90;;;;;;4867241;29;20037;-92
2022/11/18 03:01:26;;;;;;;1.70;0.30;;;8.30;99.90;;;;;;4851174;29;20033;-85
2022/11/18 03:03:52;;;;;;;1.13;0.30;;;8.30;99.90;;;;;;4835153;29;20170;-87
2022/11/18 03:06:48;;;;;;;1.60;0.30;;;8.30;99.90;;;;;;4850768;29;20042;-86
2022/11/18 03:09:34;;;;;;;1.42;0.30;;;8.30;99.90;;;;;;4851248;29;20037;-88
2022/11/18 03:12:30;;;;;;;1.48;0.20;;;8.30;99.90;;;;;;4868061;29;20521;-89
2022/11/18 03:14:59;;;;;;;0.90;0.20;;;8.30;99.90;;;;;;4851577;29;20053;-86
2022/11/18 03:17:51;;;;;;;2.75;0.32;;;8.30;99.90;;;;;;4851443;29;20042;-85
2022/11/18 03:20:27;;;;;;;0.90;0.30;;;8.40;99.90;;;;;;4851713;29;20056;-89
2022/11/18 03:23:06;;;;;;;1.60;0.30;;;8.40;99.90;;;;;;4852004;29;20109;-85
2022/11/18 03:25:43;;;;;;;1.02;0.30;;;8.40;99.90;;;;;;4868277;29;20124;-86
2022/11/18 03:28:32;;;;;;;1.38;0.38;;;8.40;99.90;;;;;;4852685;29;20106;-84
2022/11/18 03:31:04;;;;;;;1.73;0.30;;;8.40;99.90;;;;;;4853163;29;20049;-85
2022/11/18 03:34:02;;;;;;;2.53;0.77;;;8.40;99.90;;;;;;4866550;29;20040;-86
2022/11/18 03:36:35;;;;;;;2.03;0.20;;;8.40;99.90;;;;;;4830258;29;20044;-88
2022/11/18 03:39:04;;;;;;;2.13;0.30;;;8.50;99.90;;;;;;4839825;29;20123;-85
2022/11/18 03:41:34;;;;;;;1.45;0.40;;;8.50;99.90;;;;;;4852315;29;20089;-93
2022/11/18 03:44:05;;;;;;;;;;;8.50;99.90;;;;;;4859923;29;20109;-91
2022/11/18 03:46:42;;;;;;;1.30;0.25;;;8.50;99.90;;;;;;4873043;29;19924;-87
2022/11/18 03:49:12;;;;;;;1.17;0.20;;;8.60;99.90;;;;;;4839742;29;20464;-92
2022/11/18 03:51:42;;;;;;;;;;;8.60;99.90;;;;;;4872598;29;20543;-88
2022/11/18 03:54:15;;;;;;;1.15;0.30;;;8.60;99.90;;;;;;4870796;29;19918;-85
2022/11/18 03:56:48;;;;;;;1.10;0.20;;;8.60;99.90;;;;;;4856077;29;20026;-85
2022/11/18 03:59:26;;;;;;;1.83;0.30;;;8.60;99.90;;;;;;4865512;29;20097;-92
2022/11/18 04:01:56;;;;;;;1.27;0.30;;;8.60;99.90;;;;;;4861329;29;20123;-86
2022/11/18 04:04:24;;;;;;;0.82;0.20;;;8.60;99.90;;;;;;4852719;29;20033;-86
2022/11/18 04:07:01;;;;;;;1.45;0.28;;;8.60;99.90;;;;;;4860438;29;20045;-85
2022/11/18 04:09:34;;;;;;;1.20;0.30;;;8.60;99.90;;;;;;4860300;29;20105;-88
2022/11/18 04:12:09;;;;;;;2.50;0.30;;;8.60;99.90;;;;;;4871498;29;20576;-89
2022/11/18 04:14:37;;;;;;;1.00;0.22;;;8.60;99.90;;;;;;4858680;29;20103;-87
2022/11/18 04:17:12;;;;;;;1.60;0.30;;;8.70;99.90;;;;;;4842950;29;20033;-88
2022/11/18 04:19:38;;;;;;;1.05;0.30;;;8.60;99.90;;;;;;4872994;29;20041;-86
2022/11/18 04:22:04;;;;;;;1.40;0.40;;;8.60;99.90;;;;;;4874282;29;20057;-90
2022/11/18 04:24:29;;;;;;;0.82;0.22;;;8.70;99.90;;;;;;4859099;29;20458;-86
2022/11/18 04:26:55;;;;;;;2.38;0.30;;;8.60;99.90;;;;;;4860104;29;20052;-92
2022/11/18 04:29:21;;;;;;;1.05;0.30;;;8.60;99.90;;;;;;4845619;29;20105;-89
2022/11/18 04:31:47;;;;;;;1.25;0.20;;;8.60;99.90;;;;;;4860810;29;20033;-91
2022/11/18 04:34:12;;;;;;;1.23;0.20;;;8.60;99.90;;;;;;4845366;29;20036;-89
2022/11/18 04:36:38;;;;;;;0.95;0.28;;;8.60;99.90;;;;;;4859303;29;20029;-90
2022/11/18 04:39:04;;;;;;;1.92;0.40;;;8.60;99.90;;;;;;4857945;29;20120;-87
2022/11/18 04:44:14;;;;;;;1.45;0.30;;;8.60;99.90;;;;;;4871155;29;20089;-89
2022/11/18 04:46:43;;;;;;;1.50;0.40;;;8.60;99.90;;;;;;4842167;29;20049;-88
2022/11/18 04:49:11;;;;;;;2.03;0.35;;;8.60;99.90;;;;;;4874039;29;20040;-86
2022/11/18 04:51:37;;;;;;;0.77;0.30;;;8.60;99.90;;;;;;4842526;29;20033;-87
2022/11/18 04:54:04;;;;;;;1.95;0.38;;;8.60;99.90;;;;;;4836613;29;20038;-87
2022/11/18 04:56:30;;;;;;;2.88;0.30;;;8.60;99.90;;;;;;4870196;29;20124;-86
2022/11/18 04:59:00;;;;;;;1.08;0.50;;;8.60;99.90;;;;;;4867847;29;20030;-85
2022/11/18 05:01:27;;;;;;;1.00;0.30;;;8.50;99.90;;;;;;4852941;29;20033;-90
2022/11/18 05:03:52;;;;;;;0.95;0.30;;;8.50;99.90;;;;;;4862645;29;20037;-87
2022/11/18 05:06:18;;;;;;;1.02;0.30;;;8.50;99.90;;;;;;4849775;29;20049;-88
2022/11/18 05:08:44;;;;;;;1.20;0.40;;;8.60;99.90;;;;;;4862313;29;20037;-86
2022/11/18 05:13:54;;;;;;;1.50;0.30;;;8.60;99.90;;;;;;4853788;29;20032;-90
2022/11/18 05:16:19;;;;;;;1.15;0.55;;;8.50;99.90;;;;;;4866963;29;20041;-88
2022/11/18 05:18:45;;;;;;;2.28;0.40;;;8.50;99.90;;;;;;4867697;29;20526;-86
2022/11/18 05:21:11;;;;;;;1.10;0.30;;;8.50;99.90;;;;;;4868854;29;20034;-86
2022/11/18 05:23:36;;;;;;;2.28;0.40;;;8.50;99.90;;;;;;4869921;29;20029;-91
2022/11/18 05:26:07;;;;;;;1.10;0.50;;;8.50;99.90;;;;;;4868185;29;20115;-90
2022/11/18 05:28:33;;;;;;;1.42;0.40;;;8.50;99.90;;;;;;4870958;29;20041;-89
2022/11/18 05:30:59;;;;;;;0.90;0.30;;;8.50;99.90;;;;;;4853732;29;20037;-88
2022/11/18 05:33:25;;;;;;;1.48;0.40;;;8.50;99.90;;;;;;4858098;29;20489;-87
2022/11/18 05:35:50;;;;;;;1.65;0.32;;;8.50;99.90;;;;;;4869130;29;20388;-90
2022/11/18 05:38:16;;;;;;;2.58;0.30;;;8.50;99.90;;;;;;4869679;29;20137;-89
2022/11/18 05:40:42;;;;;;;1.15;0.40;;;8.50;99.90;;;;;;4853108;29;20534;-90
2022/11/18 05:43:11;;;;;;;1.33;0.35;;;8.50;99.90;;;;;;4842435;29;20056;-90
2022/11/18 05:45:42;;;;;;;1.15;0.40;;;8.50;99.90;;;;;;4860435;29;20026;-88
2022/11/18 05:48:08;;;;;;;3.05;0.30;;;8.50;99.90;;;;;;4868218;29;20045;-86
2022/11/18 05:50:37;;;;;;;2.25;0.35;;;8.50;99.90;;;;;;4857412;29;20488;-89
2022/11/18 05:53:03;;;;;;;3.10;0.38;;;8.60;99.90;;;;;;4869516;29;20033;-86
2022/11/18 05:56:01;;;;;;;2.95;0.40;;;8.50;99.90;;;;;;4841043;29;20425;-86
2022/11/18 05:58:27;;;;;;;1.23;0.40;;;8.50;99.90;;;;;;4865600;29;20471;-88
2022/11/18 06:00:56;;;;;;;1.15;0.40;;;8.50;99.90;;;;;;4857211;29;20032;-90
2022/11/18 06:03:26;;;;;;;1.50;0.30;;;8.50;99.90;;;;;;4855665;29;20045;-90
2022/11/18 06:05:56;;;;;;;1.35;0.40;;;8.50;99.90;;;;;;4853436;29;20106;-85
2022/11/18 06:08:27;;;;;;;1.05;0.40;;;8.50;99.90;;;;;;4831375;29;20056;-87
2022/11/18 06:10:54;;;;;;;2.97;0.30;;;8.50;99.90;;;;;;4831334;29;20070;-88
2022/11/18 06:13:25;;;;;;;1.27;0.40;;;8.50;99.90;;;;;;4859966;29;20026;-86
2022/11/18 06:15:51;;;;;;;1.58;0.40;;;8.50;99.90;;;;;;4840280;29;20150;-85
2022/11/18 06:18:27;;;;;;;2.50;0.50;;;8.50;99.90;;;;;;4855499;29;20410;-86
2022/11/18 06:20:56;;;;;;;1.15;0.40;;;8.50;99.90;;;;;;4850551;29;20060;-88
2022/11/18 06:23:22;;;;;;;2.78;0.50;;;8.40;99.90;;;;;;4849107;29;20065;-88
2022/11/18 06:25:48;;;;;;;1.50;0.38;;;8.50;99.90;;;;;;4849521;29;20482;-90
2022/11/18 06:28:15;;;;;;;2.28;0.40;;;8.50;99.90;;;;;;4829343;29;20049;-87
2022/11/18 06:30:41;;;;;;;1.10;0.30;;;8.40;99.90;;;;;;4862489;29;20033;-86
2022/11/18 06:33:07;;;;;;;1.80;0.30;;;8.40;99.90;;;;;;4861656;29;20037;-87
2022/11/18 06:35:33;;;;;;;1.50;0.40;;;8.50;99.90;;;;;;4850570;29;20033;-92
2022/11/18 06:37:59;;;;;;;1.95;0.38;;;8.50;99.90;;;;;;4863740;29;20033;-88
2022/11/18 06:40:24;;;;;;;1.77;0.32;;;8.40;99.90;;;;;;4864745;29;20049;-90
2022/11/18 06:45:34;;;;;;;1.98;0.52;;;8.40;99.90;;;;;;4847235;29;20029;-86
2022/11/18 06:48:00;;;;;;;0.80;0.30;;;8.40;99.90;;;;;;4847434;29;20041;-88
2022/11/18 06:50:27;;;;;;;1.00;0.40;;;8.30;99.90;;;;;;4858818;29;20021;-88
2022/11/18 06:52:53;;;;;;;2.38;0.40;;;8.30;99.90;;;;;;4849411;29;20037;-91
2022/11/18 06:55:18;;;;;;;1.23;0.40;;;8.20;99.90;;;;;;4836280;29;20036;-88
2022/11/18 06:57:44;;;;;;;2.03;0.40;;;8.10;99.90;;;;;;4862091;29;20045;-88
2022/11/18 07:00:11;;;;;;;1.15;0.40;;;8.10;99.90;;;;;;4858364;29;20132;-90
2022/11/18 07:02:37;;;;;;;1.58;0.40;;;8.10;99.90;;;;;;4863934;29;20040;-85
2022/11/18 07:05:03;;;;;;;1.30;0.45;;;8.00;99.90;;;;;;4852337;29;20141;-85
2022/11/18 07:07:33;;;;;;;2.38;0.40;;;7.90;99.90;;;;;;4863765;29;20542;-85
2022/11/18 07:09:58;;;;;;;1.63;0.60;;;7.90;99.90;;;;;;4845976;29;20418;-86
2022/11/18 07:12:24;;;;;;;1.95;0.40;;;7.90;99.90;;;;;;4845441;29;20044;-87
2022/11/18 07:14:50;;;;;;;1.55;0.40;;;8.00;99.90;;;;;;4859487;29;20030;-88
2022/11/18 07:17:15;;;;;;;1.60;0.40;;;7.90;99.90;;;;;;4850672;29;20131;-88
2022/11/18 07:19:41;;;;;;;2.00;0.45;;;7.90;99.90;;;;;;4846782;29;20049;-90
2022/11/18 07:22:07;;;;;;;1.23;0.40;;;7.80;99.90;;;;;;4861338;29;20030;-86
2022/11/18 07:24:33;;;;;;;2.42;0.40;;;7.80;99.90;;;;;;4855654;29;20129;-86
2022/11/18 07:26:58;;;;;;;1.70;0.35;;;7.90;99.90;;;;;;4851879;29;20120;-86
2022/11/18 07:29:24;;;;;;;1.20;0.40;;;7.90;99.90;;;;;;4846272;29;20546;-88
2022/11/18 07:31:50;;;;;;;3.53;0.40;;;7.90;99.90;;;;;;4860384;29;20061;-87
2022/11/18 07:34:15;;;;;;;0.77;0.30;;;7.80;99.90;;;;;;4846960;29;20060;-86
2022/11/18 07:36:42;;;;;;;0.90;0.40;;;7.90;99.90;;;;;;4848086;29;20124;-89
2022/11/18 07:39:07;;;;;;;1.05;0.30;;;7.90;99.90;;;;;;4864500;29;20037;-92
2022/11/18 07:41:34;;;;;;;1.20;0.30;;;7.90;99.90;;;;;;4847228;29;20118;-89
2022/11/18 07:44:01;;;;;;;1.80;0.45;;;8.00;99.90;;;;;;4846858;29;20137;-87
2022/11/18 07:46:29;;;;;;;1.05;0.43;;;8.00;99.90;;;;;;4836847;29;20124;-86
2022/11/18 07:48:57;;;;;;;1.65;0.40;;;8.10;99.90;;;;;;4862708;29;20479;-87
2022/11/18 07:51:28;;;;;;;0.75;0.30;;;8.10;99.90;;;;;;4869568;29;20030;-87
2022/11/18 07:53:54;;;;;;;1.40;0.40;;;8.20;99.90;;;;;;4862277;29;20049;-91
2022/11/18 07:56:20;;;;;;;2.33;0.50;;;8.20;99.90;;;;;;4834660;29;20483;-88
2022/11/18 07:58:46;;;;;;;1.75;0.40;;;8.20;99.90;;;;;;4863362;29;20037;-86
2022/11/18 08:01:17;;;;;;;1.08;0.28;;;8.30;99.90;;;;;;4835947;29;20435;-86
2022/11/18 08:03:44;;;;;;;1.65;0.40;;;8.20;99.90;;;;;;4846473;29;20062;-86
2022/11/18 08:06:13;;;;;;;1.20;0.65;;;8.20;99.90;;;;;;4862352;29;20037;-90
2022/11/18 08:08:39;;;;;;;1.30;0.30;;;8.20;99.90;;;;;;4833798;29;20500;-88
2022/11/18 08:11:07;;;;;;;2.13;0.30;;;8.20;99.90;;;;;;4854546;29;20393;-89
2022/11/18 08:13:34;;;;;;;1.95;0.40;;;8.20;99.90;;;;;;4849374;29;20038;-86
2022/11/18 08:16:00;;;;;;;2.45;0.77;;;8.20;99.90;;;;;;4864385;29;20025;-86
2022/11/18 08:18:28;;;;;;;1.02;0.30;;;8.20;99.90;;;;;;4864276;29;20121;-87
2022/11/18 08:20:53;;;;;;;1.50;0.30;;;8.20;99.90;;;;;;4848914;29;20033;-85
2022/11/18 08:23:19;;;;;;;1.55;0.50;;;8.20;99.90;;;;;;4836416;29;20081;-90
2022/11/18 08:25:45;;;;;;;1.00;0.20;;;8.10;99.90;;;;;;4865543;29;20070;-86
2022/11/18 08:28:12;;;;;;;1.65;0.30;;;8.10;99.90;;;;;;4865278;29;20050;-87
2022/11/18 08:30:38;;;;;;;0.70;0.30;;;8.10;99.90;;;;;;4841389;29;20037;-88
2022/11/18 08:33:04;;;;;;;1.55;0.35;;;8.10;99.90;;;;;;4866542;29;20119;-86
2022/11/18 08:35:31;;;;;;;2.80;0.40;;;8.10;99.90;;;;;;4855623;29;20564;-88
2022/11/18 08:37:57;;;;;;;2.17;0.40;;;8.20;99.90;;;;;;4843319;29;20083;-86
2022/11/18 08:40:24;;;;;;;1.98;0.40;;;8.20;99.90;;;;;;4843871;29;20672;-85
2022/11/18 08:42:49;;;;;;;2.53;0.35;;;8.30;99.90;;;;;;4853775;29;20062;-88
2022/11/18 08:45:15;;;;;;;1.70;0.30;;;8.40;99.90;;;;;;4843271;29;20598;-84
2022/11/18 08:47:41;;;;;;;1.40;0.30;;;8.40;99.90;;;;;;4835301;29;20045;-86
2022/11/18 08:50:09;;;;;;;0.98;0.30;;;8.40;99.90;;;;;;4844365;29;20044;-86
2022/11/18 08:52:35;;;;;;;1.55;0.40;;;8.40;99.90;;;;;;4839914;29;20741;-87
2022/11/18 08:55:01;;;;;;;1.40;0.40;;;8.50;99.90;;;;;;4859645;29;20048;-91
2022/11/18 08:57:27;;;;;;;2.50;0.40;;;8.60;99.90;;;;;;4859353;29;20042;-89
2022/11/18 08:59:53;;;;;;;1.65;0.40;;;8.60;99.90;;;;;;4850219;29;20052;-89
2022/11/18 09:02:20;;;;;;;2.45;0.50;;;8.60;99.90;;;;;;4843171;29;20702;-90
2022/11/18 09:04:52;;;;;;;1.67;0.50;;;8.70;99.90;;;;;;4833503;29;20038;-88
2022/11/18 09:07:20;;;;;;;2.45;0.50;;;8.70;99.90;;;;;;4849117;29;20525;-89
2022/11/18 09:09:45;;;;;;;2.70;0.50;;;8.80;99.90;;;;;;4850183;29;20042;-91
2022/11/18 09:12:13;;;;;;;1.30;0.35;;;8.80;99.90;;;;;;4857325;29;20041;-86
2022/11/18 09:14:45;;;;;;;1.23;0.30;;;8.90;99.90;;;;;;4841534;29;20037;-86
2022/11/18 09:17:13;;;;;;;1.75;0.40;;;8.90;99.90;;;;;;4858548;29;20037;-89
2022/11/18 09:19:38;;;;;;;1.40;0.43;;;9.00;99.90;;;;;;4849596;29;20036;-88
2022/11/18 09:22:05;;;;;;;1.83;0.65;;;9.00;99.90;;;;;;4857472;29;20037;-88
2022/11/18 09:24:31;;;;;;;2.25;0.30;;;9.10;99.90;;;;;;4842189;29;21121;-91
2022/11/18 09:26:57;;;;;;;1.27;0.40;;;9.10;99.90;;;;;;4851310;29;20053;-89
2022/11/18 09:29:25;;;;;;;1.27;0.38;;;9.10;99.90;;;;;;4853491;29;20045;-83
2022/11/18 09:31:51;;;;;;;1.30;0.35;;;9.00;99.90;;;;;;4848831;29;20038;-90
2022/11/18 09:34:17;;;;;;;1.25;0.30;;;9.00;99.90;;;;;;4844903;29;20034;-87
2022/11/18 09:36:43;;;;;;;1.77;0.40;;;8.90;99.90;;;;;;4850162;29;20100;-91
2022/11/18 09:39:09;;;;;;;1.02;0.30;;;8.90;99.90;;;;;;4801568;29;20050;-83
2022/11/18 09:42:04;;;;;;;2.08;0.40;;;8.90;99.90;;;;;;4853372;29;20048;-83
2022/11/18 09:44:58;;;;;;;1.45;0.30;;;8.90;99.90;;;;;;4834385;29;20567;-85
2022/11/18 09:47:33;;;;;;;1.77;0.40;;;9.00;99.90;;;;;;4842702;29;20049;-86
2022/11/18 09:50:06;;;;;;;1.70;0.40;;;9.00;99.90;;;;;;4856805;29;20071;-85
2022/11/18 09:52:35;;;;;;;1.35;0.30;;;9.00;99.90;;;;;;4857630;29;20049;-88
2022/11/18 09:55:10;;;;;;;2.28;0.45;;;8.90;99.90;;;;;;4848431;29;20433;-87
2022/11/18 09:57:43;;;;;;;0.90;0.38;;;9.00;99.90;;;;;;4858023;29;20046;-87
2022/11/18 10:00:29;;;;;;;2.08;0.40;;;9.10;99.90;;;;;;4842524;29;20069;-86
2022/11/18 10:02:54;;;;;;;1.02;0.40;;;9.10;99.90;;;;;;4857148;29;20447;-90
2022/11/18 10:05:26;;;;;;;1.27;0.40;;;9.10;99.90;;;;;;4861403;29;20160;-86
2022/11/18 10:07:58;;;;;;;3.28;0.50;;;9.30;99.90;;;;;;4832992;29;20061;-84
2022/11/18 10:10:59;;;;;;;2.15;0.43;;;9.40;99.90;;;;;;4852324;29;20096;-88
2022/11/18 10:13:47;;;;;;;2.55;0.50;;;9.40;99.90;;;;;;4849835;29;20055;-87
2022/11/18 10:16:38;;;;;;;1.90;0.40;;;9.30;99.90;;;;;;4859120;29;20037;-86
2022/11/18 10:19:21;;;;;;;1.05;0.40;;;9.40;99.90;;;;;;4857312;29;20034;-88
2022/11/18 10:21:58;;;;;;;2.45;0.45;;;9.50;99.90;;;;;;4843524;29;20494;-89
2022/11/18 10:24:31;;;;;;;1.17;0.40;;;9.50;99.90;;;;;;4858134;29;20112;-85
2022/11/18 10:26:58;;;;;;;1.55;0.40;;;9.60;99.90;;;;;;4842192;29;20049;-86
2022/11/18 10:29:25;;;;;;;3.28;0.40;;;9.70;99.90;;;;;;4832034;29;20478;-87
2022/11/18 10:32:01;;;;;;;1.10;0.30;;;9.80;99.90;;;;;;4857539;29;20049;-83
2022/11/18 10:34:27;;;;;;;2.38;0.60;;;9.90;99.90;;;;;;4842613;29;20042;-87
2022/11/18 10:37:24;;;;;;;1.90;0.40;;;9.80;99.90;;;;;;4841821;29;20030;-85
2022/11/18 10:39:55;;;;;;;1.23;0.40;;;10.00;99.90;;;;;;4839435;29;20049;-87
2022/11/18 10:42:28;;;;;;;1.48;0.50;;;10.10;99.90;;;;;;4843111;29;20049;-83
2022/11/18 10:45:13;;;;;;;1.98;0.40;;;10.10;99.90;;;;;;4832826;29;20093;-83
2022/11/18 10:47:38;;;;;;;0.80;0.38;;;10.20;99.90;;;;;;4841472;29;20060;-84
2022/11/18 10:50:30;;;;;;;3.10;0.60;;;10.20;99.90;;;;;;4841614;29;20393;-89
2022/11/18 10:52:56;;;;;;;3.47;0.60;;;10.10;99.90;;;;;;4832875;29;20045;-85
2022/11/18 10:55:23;;;;;;;1.30;0.50;;;10.00;99.90;;;;;;4856488;29;20457;-87
2022/11/18 10:57:53;;;;;;;1.42;0.40;;;10.20;99.90;;;;;;4839678;29;20461;-84
2022/11/18 11:00:36;;;;;;;2.00;0.50;;;10.30;99.90;;;;;;4840635;29;20169;-87
2022/11/18 11:03:27;;;;;;;1.35;0.40;;;10.40;99.90;;;;;;4842146;29;20034;-93
2022/11/18 11:06:11;;;;;;;;;;;10.40;99.90;;;;;;4857732;29;20052;-89
2022/11/18 11:08:50;;;;;;;2.40;0.52;;;10.60;99.90;;;;;;4819601;29;20447;-91
2022/11/18 11:11:27;;;;;;;2.25;0.50;;;10.60;99.90;;;;;;4843530;29;20060;-90
2022/11/18 11:14:43;;;;;;;1.40;0.40;;;10.70;99.90;;;;;;4856778;29;20327;-90
2022/11/18 11:17:17;;;;;;;1.83;0.40;;;10.50;99.90;;;;;;4833414;29;20649;-87
2022/11/18 11:20:17;;;;;;;1.40;0.40;;;10.40;99.90;;;;;;4840254;29;20038;-84
2022/11/18 11:22:44;;;;;;;1.92;0.50;;;10.30;99.90;;;;;;4842055;29;20125;-88
2022/11/18 11:25:22;;;;;;;2.05;0.60;;;10.30;99.90;;;;;;4841436;29;20101;-88
2022/11/18 11:28:21;;;;;;;2.67;0.50;;;10.10;99.90;;;;;;4863884;29;20046;-92
2022/11/18 11:31:12;;;;;;;2.53;0.50;;;10.20;99.90;;;;;;4861914;29;20061;-89
2022/11/18 11:34:10;;;;;;;2.30;0.50;;;10.20;99.90;;;;;;4833076;29;20030;-89
2022/11/18 11:36:51;;;;;;;2.80;0.63;;;10.30;99.90;;;;;;4846392;29;20057;-91
2022/11/18 11:39:25;;;;;;;1.30;0.50;;;10.40;99.90;;;;;;4830666;29;20061;-91
2022/11/18 11:42:02;;;;;;;1.58;0.50;;;10.50;99.90;;;;;;4829780;29;20041;-87
2022/11/18 11:44:49;;;;;;;1.35;0.45;;;10.60;99.90;;;;;;4831268;29;20033;-91
2022/11/18 11:47:55;;;;;;;2.92;0.57;;;10.80;99.90;;;;;;4845717;29;20045;-88
2022/11/18 11:50:52;;;;;;;2.03;0.60;;;10.80;99.90;;;;;;4848278;29;20030;-87
2022/11/18 11:53:36;;;;;;;1.83;0.50;;;10.80;99.90;;;;;;4847587;29;20373;-89
2022/11/18 11:56:25;;;;;;;1.55;0.50;;;10.70;99.90;;;;;;4832552;29;20097;-88
2022/11/18 11:59:09;;;;;;;2.97;0.60;;;10.70;99.90;;;;;;4831354;29;20140;-89
2022/11/18 12:01:59;;;;;;;2.33;0.60;;;10.80;99.90;;;;;;4836271;29;20200;-89
2022/11/18 12:04:48;;;;;;;1.52;0.55;;;10.90;99.90;;;;;;4854500;29;20102;-89
2022/11/18 12:07:25;;;;;;;1.45;0.50;;;10.80;99.90;;;;;;4840495;29;20053;-89
2022/11/18 12:10:19;;;;;;;2.10;0.50;;;10.80;99.90;;;;;;4866061;29;20044;-91
2022/11/18 12:12:57;;;;;;;1.88;0.50;;;10.80;99.90;;;;;;4843704;29;20107;-91
2022/11/18 12:15:41;;;;;;;1.45;0.40;;;10.90;99.90;;;;;;4834758;29;20487;-91
2022/11/18 12:18:46;;;;;;;2.00;0.50;;;10.80;99.90;;;;;;4836525;29;20427;-92
2022/11/18 12:21:45;;;;;;;1.65;0.50;;;10.80;99.90;;;;;;4842415;29;20045;-91
2022/11/18 12:24:36;;;;;;;1.60;0.40;;;10.80;99.90;;;;;;4833577;29;20040;-89
2022/11/18 12:27:02;;;;;;;1.25;0.40;;;10.80;99.90;;;;;;4868552;29;20128;-88
2022/11/18 12:29:48;;;;;;;2.75;0.60;;;10.80;99.90;;;;;;4835086;29;20123;-92
2022/11/18 12:32:25;;;;;;;1.92;0.47;;;10.70;99.90;;;;;;4869750;29;20608;-89
2022/11/18 12:35:12;;;;;;;1.90;0.40;;;10.60;99.90;;;;;;4856445;29;20045;-86
2022/11/18 12:37:43;;;;;;;4.03;0.40;;;10.70;99.90;;;;;;4836543;29;20444;-87
2022/11/18 12:40:30;;;;;;;2.17;0.40;;;10.60;99.90;;;;;;4841405;29;20123;-87
2022/11/18 12:45:42;;;;;;;2.40;0.40;;;10.60;99.90;;;;;;4854630;29;20134;-84
2022/11/18 12:48:23;;;;;;;1.52;0.40;;;10.60;99.90;;;;;;4875888;29;20033;-84
2022/11/18 12:50:53;;;;;;;2.78;0.40;;;10.70;99.90;;;;;;4874726;29;20034;-83
2022/11/18 12:53:54;;;;;;;;;;;10.70;99.90;;;;;;4859607;29;20032;-84
2022/11/18 12:56:28;;;;;;;1.77;0.50;;;10.90;99.90;;;;;;4832290;29;19936;-84
2022/11/18 12:58:57;;;;;;;2.22;0.60;;;11.10;99.90;;;;;;4832863;29;20110;-85
2022/11/18 13:01:28;;;;;;;3.35;0.73;;;11.10;99.90;;;;;;4868796;23;20061;-88
2022/11/18 13:04:06;;;;;;;3.03;0.60;;;11.00;99.90;;;;;;4919412;29;20507;-85
2022/11/18 13:06:33;;;;;;;1.80;0.60;;;11.00;99.90;;;;;;4904620;29;20488;-84
2022/11/18 13:09:06;;;;;;;1.83;0.73;;;10.90;99.90;;;;;;4923584;29;20390;-85
2022/11/18 13:11:46;;;;;;;2.00;0.60;;;10.90;99.90;;;;;;4905113;29;20036;-86
2022/11/18 13:20:20;;;;;;;1.55;0.50;;;10.80;99.90;;;;;;4920755;29;20024;-91
2022/11/18 13:25:50;;;;;;;3.60;0.60;;;10.90;99.90;;;;;;4924964;29;20040;-83
2022/11/18 13:28:37;;;;;;;2.40;0.50;;;10.90;99.90;;;;;;4910606;29;20115;-84
2022/11/18 13:31:16;;;;;;;1.17;0.30;;;10.90;99.90;;;;;;4923897;29;20036;-87
2022/11/18 13:33:42;;;;;;;1.23;0.30;;;10.80;99.90;;;;;;4916973;29;20028;-84
2022/11/18 13:36:18;;;;;;;3.72;0.40;;;10.90;99.90;;;;;;4921898;29;20035;-92
2022/11/18 13:39:01;;;;;;;2.88;0.40;;;10.80;99.90;;;;;;4931497;29;20421;-91
2022/11/18 13:41:32;;;;;;;2.05;0.55;;;10.80;99.90;;;;;;4897089;29;20028;-90
2022/11/18 13:44:16;;;;;;;2.35;0.40;;;10.90;99.90;;;;;;4914333;29;20040;-92
2022/11/18 13:46:43;;;;;;;2.17;0.52;;;11.00;99.90;;;;;;4926539;29;20070;-87